• Join FlightAware (Why Join?)
  • Login
  • US Flag 
10:27PM EDT


 

Airport Tracker/Info


-or-


 

Live Flight TrackerFlight Track Log ✈ CPT8912 ✈ 23-Oct-2013 ✈ KGTF - KBZN

Flight Track Log - Related Links

Times and Time Zones

All times are in EDT time to prevent confusion due to time zone crossing. See the CPT8912 flight status page for this flight to view local times or setup timezone preferences in your user account.

Time Position Orientation Groundspeed Altitude Reporting Facility
EDT Latitude Longitude Course Direction KTS MPH feet Rate Location/Type
10:16AM 47.3864 -111.4208 198° South 134 154 6,200  Level Salt Lake Center
10:17AM 47.3503 -111.4239 183° South 133 153 7,000 780 Climbing Salt Lake Center
10:18AM 47.3136 -111.4281 184° South 133 153 7,800 780 Climbing Salt Lake Center
10:19AM 47.2688 -111.3424 188° South  Level Estimated
10:19AM 47.2756 -111.4333 185° South 134 154 8,700  Level Salt Lake Center
10:20AM 47.2261 -111.3368 180° South  Level Estimated
10:20AM 47.2367 -111.4389 186° South 137 158 9,400  Level Salt Lake Center
10:21AM 47.1837 -111.3568 198° South  Level FlightAware Approximate
10:21AM 47.1953 -111.4447 185° South 142 163 9,500  Level Salt Lake Center
10:22AM 47.1500 -111.4514 186° South 152 175 9,500  Level Salt Lake Center
10:23AM 47.0953 -111.4597 186° South 161 185 9,500  Level Salt Lake Center
10:24AM 47.0503 -111.4656 185° South 162 186 9,500  Level Salt Lake Center
10:25AM 47.0053 -111.4717 185° South 163 188 9,500  Level Salt Lake Center
10:26AM 46.9597 -111.4769 185° South 163 188 9,500  Level Salt Lake Center
10:27AM 46.9147 -111.4831 185° South 163 188 9,500  Level Salt Lake Center
10:28AM 46.8703 -111.4892 185° South 162 186 9,500  Level Salt Lake Center
10:29AM 46.8261 -111.4936 184° South 161 185 9,500  Level Salt Lake Center
10:30AM 46.7822 -111.4992 185° South 160 184 9,500  Level Salt Lake Center
10:31AM 46.7300 -111.5056 185° South 158 182 9,500  Level Salt Lake Center
10:32AM 46.6867 -111.5108 185° South 157 181 9,500  Level Salt Lake Center
10:33AM 46.6431 -111.5169 185° South 157 181 9,500  Level Salt Lake Center
10:34AM 46.5994 -111.5233 186° South 158 182 9,500  Level Salt Lake Center
10:35AM 46.5550 -111.5286 185° South 158 182 9,500  Level Salt Lake Center
10:36AM 46.5100 -111.5342 185° South 160 184 9,500  Level Salt Lake Center
10:37AM 46.4667 -111.5411 186° South 159 183 9,500  Level Salt Lake Center
10:38AM 46.4194 -111.5403 179° South 158 182 9,500  Level Salt Lake Center
10:39AM 46.3753 -111.5203 163° South 157 181 9,600  Climbing Salt Lake Center
10:40AM 46.3333 -111.4722 142° Southeast 157 181 9,500 -60 Descending Salt Lake Center
10:41AM 46.2867 -111.4483 161° South 161 185 9,500  Level Salt Lake Center
10:42AM 46.2436 -111.4231 158° South 163 188 9,500  Level Salt Lake Center
10:43AM 46.2014 -111.3992 159° South 161 185 9,500  Level Salt Lake Center
10:44AM 46.1589 -111.3739 158° South 162 186 9,600  Climbing Salt Lake Center
10:45AM 46.1164 -111.3483 157° South 163 188 9,600 -300 Level Salt Lake Center
10:46AM 46.0719 -111.3233 159° South 167 192 9,100 -300 Descending Salt Lake Center
10:47AM 46.0228 -111.2958 159° South 171 197 9,100 -120 Level Salt Lake Center
10:48AM 45.9814 -111.2725 159° South 159 183 8,900 -540 Descending Salt Lake Center
10:50AM 45.9386 -111.2478 158° South 162 186 8,100 -840 Descending Salt Lake Center
10:51AM 45.8958 -111.2311 165° South 159 183 7,200 -900 Descending Salt Lake Center
10:52AM 45.8514 -111.2314 180° South 159 183 6,300 -840 Descending Salt Lake Center
10:53AM 45.8144 -111.2036 152° Southeast 156 180 5,600 -540 Descending Salt Lake Center
10:54AM 45.7947 -111.1767 136° Southeast 98 113 5,300 -540 Descending Salt Lake Center
10:55AM 45.7764 -111.1503 135° Southeast 87 100 4,500 -780 Descending Salt Lake Center